McCoysville, Pennsylvania
Current Conditions -  °F | °C
As of 8:53 PM on Wednesday 17 Dec 2014 (Local Time) from KUNV Reporting Station
Overcast Overcast  
Wind Chill: 21°   Ceiling: 2700
Heat Index: 32°   Visibility: 10mi
Dew Point: 23°   Wind: 17mph
Humidity: 69%   Direction: 300°WNW
Pressure: 30.03"   Gusts: NA
Location:  40.5727°N, 77.4248°W
Report Text: KUNV 180153Z 30015KT 10SM OVC027 00/M05 A3003
Loading
Personal Weather Stations






























Interactive Weather Map New forecast layout! Learn more

10-Day Weather Forecast

Advertisements
Track Severe Weather on mobile